sensor_id;sensor_type;location;lat;lon;timestamp;P1;durP1;ratioP1;P2;durP2;ratioP2
52956;SDS011;38819;42.692;23.342;2022-07-23T00:01:26;7.55;;;5.93;;
52956;SDS011;38819;42.692;23.342;2022-07-23T00:03:52;8.68;;;5.68;;
52956;SDS011;38819;42.692;23.342;2022-07-23T00:06:19;13.20;;;6.15;;
52956;SDS011;38819;42.692;23.342;2022-07-23T00:08:45;12.20;;;6.03;;
52956;SDS011;38819;42.692;23.342;2022-07-23T00:11:10;13.63;;;6.35;;
52956;SDS011;38819;42.692;23.342;2022-07-23T00:13:36;12.93;;;6.72;;
52956;SDS011;38819;42.692;23.342;2022-07-23T00:16:01;12.05;;;7.55;;
52956;SDS011;38819;42.692;23.342;2022-07-23T00:18:27;10.80;;;7.28;;
52956;SDS011;38819;42.692;23.342;2022-07-23T00:20:52;13.65;;;7.10;;
52956;SDS011;38819;42.692;23.342;2022-07-23T00:23:18;12.75;;;6.63;;
52956;SDS011;38819;42.692;23.342;2022-07-23T00:25:44;13.98;;;7.57;;
52956;SDS011;38819;42.692;23.342;2022-07-23T00:28:10;13.40;;;7.88;;
52956;SDS011;38819;42.692;23.342;2022-07-23T00:30:36;14.32;;;8.65;;
52956;SDS011;38819;42.692;23.342;2022-07-23T00:33:02;12.95;;;7.90;;
52956;SDS011;38819;42.692;23.342;2022-07-23T00:35:34;13.55;;;8.63;;
52956;SDS011;38819;42.692;23.342;2022-07-23T00:38:02;15.35;;;8.50;;
52956;SDS011;38819;42.692;23.342;2022-07-23T00:40:28;16.38;;;8.20;;
52956;SDS011;38819;42.692;23.342;2022-07-23T00:42:54;11.23;;;7.90;;
52956;SDS011;38819;42.692;23.342;2022-07-23T00:45:20;15.70;;;8.80;;
52956;SDS011;38819;42.692;23.342;2022-07-23T00:47:46;13.23;;;8.27;;
52956;SDS011;38819;42.692;23.342;2022-07-23T00:50:12;16.92;;;9.13;;
52956;SDS011;38819;42.692;23.342;2022-07-23T00:52:38;14.85;;;9.50;;
52956;SDS011;38819;42.692;23.342;2022-07-23T00:55:06;10.25;;;7.50;;
52956;SDS011;38819;42.692;23.342;2022-07-23T00:57:32;16.75;;;9.45;;
52956;SDS011;38819;42.692;23.342;2022-07-23T00:59:58;20.60;;;9.23;;
52956;SDS011;38819;42.692;23.342;2022-07-23T01:02:24;16.80;;;7.55;;
52956;SDS011;38819;42.692;23.342;2022-07-23T01:04:50;10.93;;;7.32;;
52956;SDS011;38819;42.692;23.342;2022-07-23T01:07:16;12.05;;;5.85;;
52956;SDS011;38819;42.692;23.342;2022-07-23T01:09:43;17.17;;;5.75;;
52956;SDS011;38819;42.692;23.342;2022-07-23T01:12:10;14.82;;;6.00;;
52956;SDS011;38819;42.692;23.342;2022-07-23T01:14:35;13.80;;;6.68;;
52956;SDS011;38819;42.692;23.342;2022-07-23T01:17:01;17.58;;;6.22;;
52956;SDS011;38819;42.692;23.342;2022-07-23T01:19:26;9.82;;;6.00;;
52956;SDS011;38819;42.692;23.342;2022-07-23T01:21:52;8.90;;;5.72;;
52956;SDS011;38819;42.692;23.342;2022-07-23T01:24:19;10.38;;;5.13;;
52956;SDS011;38819;42.692;23.342;2022-07-23T01:26:45;8.27;;;5.75;;
52956;SDS011;38819;42.692;23.342;2022-07-23T01:29:12;7.85;;;5.78;;
52956;SDS011;38819;42.692;23.342;2022-07-23T01:31:38;11.60;;;5.43;;
52956;SDS011;38819;42.692;23.342;2022-07-23T01:34:04;8.75;;;5.60;;
52956;SDS011;38819;42.692;23.342;2022-07-23T01:36:32;10.18;;;5.63;;
52956;SDS011;38819;42.692;23.342;2022-07-23T01:38:58;9.13;;;5.65;;
52956;SDS011;38819;42.692;23.342;2022-07-23T01:41:23;8.48;;;6.38;;
52956;SDS011;38819;42.692;23.342;2022-07-23T01:43:49;9.52;;;5.63;;
52956;SDS011;38819;42.692;23.342;2022-07-23T01:46:14;9.00;;;6.22;;
52956;SDS011;38819;42.692;23.342;2022-07-23T01:48:40;6.57;;;5.18;;
52956;SDS011;38819;42.692;23.342;2022-07-23T01:51:06;10.88;;;5.72;;
52956;SDS011;38819;42.692;23.342;2022-07-23T01:53:32;8.00;;;5.63;;
52956;SDS011;38819;42.692;23.342;2022-07-23T01:55:58;14.25;;;5.78;;
52956;SDS011;38819;42.692;23.342;2022-07-23T01:58:25;10.90;;;5.83;;
52956;SDS011;38819;42.692;23.342;2022-07-23T02:00:50;7.05;;;5.53;;
52956;SDS011;38819;42.692;23.342;2022-07-23T02:03:16;6.88;;;5.00;;
52956;SDS011;38819;42.692;23.342;2022-07-23T02:05:41;9.88;;;5.55;;
52956;SDS011;38819;42.692;23.342;2022-07-23T02:08:06;9.43;;;5.82;;
52956;SDS011;38819;42.692;23.342;2022-07-23T02:10:32;6.75;;;5.30;;
52956;SDS011;38819;42.692;23.342;2022-07-23T02:12:57;6.78;;;5.88;;
52956;SDS011;38819;42.692;23.342;2022-07-23T02:15:23;9.85;;;5.15;;
52956;SDS011;38819;42.692;23.342;2022-07-23T02:17:48;8.38;;;5.30;;
52956;SDS011;38819;42.692;23.342;2022-07-23T02:20:14;8.30;;;5.60;;
52956;SDS011;38819;42.692;23.342;2022-07-23T02:22:39;10.10;;;5.68;;
52956;SDS011;38819;42.692;23.342;2022-07-23T02:25:05;10.52;;;5.63;;
52956;SDS011;38819;42.692;23.342;2022-07-23T02:27:32;7.43;;;5.30;;
52956;SDS011;38819;42.692;23.342;2022-07-23T02:29:57;13.77;;;5.85;;
52956;SDS011;38819;42.692;23.342;2022-07-23T02:32:23;12.48;;;6.82;;
52956;SDS011;38819;42.692;23.342;2022-07-23T02:34:49;13.45;;;7.65;;
52956;SDS011;38819;42.692;23.342;2022-07-23T02:37:15;12.68;;;7.70;;
52956;SDS011;38819;42.692;23.342;2022-07-23T02:39:40;16.00;;;7.88;;
52956;SDS011;38819;42.692;23.342;2022-07-23T02:42:06;14.15;;;7.90;;
52956;SDS011;38819;42.692;23.342;2022-07-23T02:44:31;17.88;;;8.32;;
52956;SDS011;38819;42.692;23.342;2022-07-23T02:46:57;14.10;;;8.68;;
52956;SDS011;38819;42.692;23.342;2022-07-23T02:49:22;12.00;;;7.82;;
52956;SDS011;38819;42.692;23.342;2022-07-23T02:51:48;17.92;;;8.73;;
52956;SDS011;38819;42.692;23.342;2022-07-23T02:54:13;19.88;;;9.73;;
52956;SDS011;38819;42.692;23.342;2022-07-23T02:56:39;25.65;;;9.77;;
52956;SDS011;38819;42.692;23.342;2022-07-23T02:59:04;17.20;;;8.95;;
52956;SDS011;38819;42.692;23.342;2022-07-23T03:01:30;16.35;;;9.43;;
52956;SDS011;38819;42.692;23.342;2022-07-23T03:03:55;20.63;;;10.20;;
52956;SDS011;38819;42.692;23.342;2022-07-23T03:06:20;17.42;;;11.30;;
52956;SDS011;38819;42.692;23.342;2022-07-23T03:08:46;18.20;;;10.05;;
52956;SDS011;38819;42.692;23.342;2022-07-23T03:11:12;17.25;;;9.98;;
52956;SDS011;38819;42.692;23.342;2022-07-23T03:13:37;16.05;;;9.70;;
52956;SDS011;38819;42.692;23.342;2022-07-23T03:16:03;16.35;;;10.18;;
52956;SDS011;38819;42.692;23.342;2022-07-23T03:18:29;25.65;;;10.40;;
52956;SDS011;38819;42.692;23.342;2022-07-23T03:20:55;16.80;;;8.57;;
52956;SDS011;38819;42.692;23.342;2022-07-23T03:23:20;9.57;;;6.63;;
52956;SDS011;38819;42.692;23.342;2022-07-23T03:25:46;10.48;;;7.35;;
52956;SDS011;38819;42.692;23.342;2022-07-23T03:28:14;20.27;;;8.05;;
52956;SDS011;38819;42.692;23.342;2022-07-23T03:30:41;14.40;;;8.13;;
52956;SDS011;38819;42.692;23.342;2022-07-23T03:33:14;15.50;;;7.03;;
52956;SDS011;38819;42.692;23.342;2022-07-23T03:35:41;17.63;;;8.23;;
52956;SDS011;38819;42.692;23.342;2022-07-23T03:38:07;14.20;;;7.60;;
52956;SDS011;38819;42.692;23.342;2022-07-23T03:40:32;18.13;;;9.30;;
52956;SDS011;38819;42.692;23.342;2022-07-23T03:42:58;11.88;;;7.72;;
52956;SDS011;38819;42.692;23.342;2022-07-23T03:45:23;19.58;;;9.27;;
52956;SDS011;38819;42.692;23.342;2022-07-23T03:47:49;19.77;;;9.32;;
52956;SDS011;38819;42.692;23.342;2022-07-23T03:50:14;13.38;;;7.60;;
52956;SDS011;38819;42.692;23.342;2022-07-23T03:52:40;11.68;;;8.15;;
52956;SDS011;38819;42.692;23.342;2022-07-23T03:55:05;17.80;;;7.82;;
52956;SDS011;38819;42.692;23.342;2022-07-23T03:57:31;24.27;;;9.88;;
52956;SDS011;38819;42.692;23.342;2022-07-23T03:59:57;17.42;;;8.88;;
52956;SDS011;38819;42.692;23.342;2022-07-23T04:02:22;19.70;;;8.73;;
52956;SDS011;38819;42.692;23.342;2022-07-23T04:04:48;21.48;;;10.27;;
52956;SDS011;38819;42.692;23.342;2022-07-23T04:07:15;18.42;;;10.77;;
52956;SDS011;38819;42.692;23.342;2022-07-23T04:09:42;20.05;;;10.32;;
52956;SDS011;38819;42.692;23.342;2022-07-23T04:12:08;13.00;;;8.48;;
52956;SDS011;38819;42.692;23.342;2022-07-23T04:14:33;15.85;;;8.00;;
52956;SDS011;38819;42.692;23.342;2022-07-23T04:16:59;12.70;;;8.60;;
52956;SDS011;38819;42.692;23.342;2022-07-23T04:19:24;13.60;;;8.38;;
52956;SDS011;38819;42.692;23.342;2022-07-23T04:21:50;17.40;;;7.78;;
52956;SDS011;38819;42.692;23.342;2022-07-23T04:24:16;17.48;;;8.15;;
52956;SDS011;38819;42.692;23.342;2022-07-23T04:26:43;10.70;;;7.35;;
52956;SDS011;38819;42.692;23.342;2022-07-23T04:29:08;19.63;;;8.15;;
52956;SDS011;38819;42.692;23.342;2022-07-23T04:31:34;14.52;;;7.63;;
52956;SDS011;38819;42.692;23.342;2022-07-23T04:33:59;21.80;;;8.48;;
52956;SDS011;38819;42.692;23.342;2022-07-23T04:36:24;9.88;;;7.30;;
52956;SDS011;38819;42.692;23.342;2022-07-23T04:38:50;12.50;;;7.60;;
52956;SDS011;38819;42.692;23.342;2022-07-23T04:41:15;11.52;;;6.75;;
52956;SDS011;38819;42.692;23.342;2022-07-23T04:43:41;11.25;;;7.90;;
52956;SDS011;38819;42.692;23.342;2022-07-23T04:46:06;14.73;;;8.10;;
52956;SDS011;38819;42.692;23.342;2022-07-23T04:48:31;14.70;;;6.78;;
52956;SDS011;38819;42.692;23.342;2022-07-23T04:50:57;13.48;;;8.40;;
52956;SDS011;38819;42.692;23.342;2022-07-23T04:53:22;16.10;;;7.50;;
52956;SDS011;38819;42.692;23.342;2022-07-23T04:55:48;12.75;;;7.90;;
52956;SDS011;38819;42.692;23.342;2022-07-23T04:58:13;23.85;;;8.23;;
52956;SDS011;38819;42.692;23.342;2022-07-23T05:00:39;17.90;;;8.23;;
52956;SDS011;38819;42.692;23.342;2022-07-23T05:03:04;15.13;;;8.00;;
52956;SDS011;38819;42.692;23.342;2022-07-23T05:05:30;17.90;;;7.90;;
52956;SDS011;38819;42.692;23.342;2022-07-23T05:07:55;17.45;;;7.63;;
52956;SDS011;38819;42.692;23.342;2022-07-23T05:10:21;14.60;;;7.30;;
52956;SDS011;38819;42.692;23.342;2022-07-23T05:12:46;21.42;;;7.85;;
52956;SDS011;38819;42.692;23.342;2022-07-23T05:15:12;12.90;;;7.72;;
52956;SDS011;38819;42.692;23.342;2022-07-23T05:17:37;13.25;;;7.78;;
52956;SDS011;38819;42.692;23.342;2022-07-23T05:20:02;17.80;;;7.65;;
52956;SDS011;38819;42.692;23.342;2022-07-23T05:22:28;12.85;;;7.53;;
52956;SDS011;38819;42.692;23.342;2022-07-23T05:24:54;11.43;;;6.93;;
52956;SDS011;38819;42.692;23.342;2022-07-23T05:27:19;16.83;;;7.32;;
52956;SDS011;38819;42.692;23.342;2022-07-23T05:29:45;16.08;;;7.60;;
52956;SDS011;38819;42.692;23.342;2022-07-23T05:32:10;15.88;;;8.27;;
52956;SDS011;38819;42.692;23.342;2022-07-23T05:34:35;13.15;;;7.47;;
52956;SDS011;38819;42.692;23.342;2022-07-23T05:37:01;18.13;;;9.07;;
52956;SDS011;38819;42.692;23.342;2022-07-23T05:39:26;15.07;;;7.32;;
52956;SDS011;38819;42.692;23.342;2022-07-23T05:41:52;11.70;;;7.43;;
52956;SDS011;38819;42.692;23.342;2022-07-23T05:44:17;17.90;;;7.78;;
52956;SDS011;38819;42.692;23.342;2022-07-23T05:46:42;12.93;;;7.57;;
52956;SDS011;38819;42.692;23.342;2022-07-23T05:49:08;12.90;;;7.07;;
52956;SDS011;38819;42.692;23.342;2022-07-23T05:51:33;16.75;;;7.30;;
52956;SDS011;38819;42.692;23.342;2022-07-23T05:53:59;13.93;;;8.00;;
52956;SDS011;38819;42.692;23.342;2022-07-23T05:56:24;15.73;;;8.15;;
52956;SDS011;38819;42.692;23.342;2022-07-23T05:58:49;17.05;;;7.82;;
52956;SDS011;38819;42.692;23.342;2022-07-23T06:01:15;21.02;;;7.95;;
52956;SDS011;38819;42.692;23.342;2022-07-23T06:03:40;19.58;;;8.00;;
52956;SDS011;38819;42.692;23.342;2022-07-23T06:06:06;10.65;;;7.43;;
52956;SDS011;38819;42.692;23.342;2022-07-23T06:08:31;14.75;;;6.90;;
52956;SDS011;38819;42.692;23.342;2022-07-23T06:10:57;16.42;;;7.93;;
52956;SDS011;38819;42.692;23.342;2022-07-23T06:13:22;11.93;;;7.85;;
52956;SDS011;38819;42.692;23.342;2022-07-23T06:15:48;11.88;;;8.30;;
52956;SDS011;38819;42.692;23.342;2022-07-23T06:18:13;17.20;;;7.45;;
52956;SDS011;38819;42.692;23.342;2022-07-23T06:20:39;10.48;;;7.80;;
52956;SDS011;38819;42.692;23.342;2022-07-23T06:23:05;16.75;;;8.27;;
52956;SDS011;38819;42.692;23.342;2022-07-23T06:25:30;14.32;;;8.15;;
52956;SDS011;38819;42.692;23.342;2022-07-23T06:27:55;15.13;;;7.97;;
52956;SDS011;38819;42.692;23.342;2022-07-23T06:30:21;17.63;;;7.43;;
52956;SDS011;38819;42.692;23.342;2022-07-23T06:32:47;16.40;;;7.90;;
52956;SDS011;38819;42.692;23.342;2022-07-23T06:35:13;13.32;;;6.82;;
52956;SDS011;38819;42.692;23.342;2022-07-23T06:37:38;18.85;;;7.35;;
52956;SDS011;38819;42.692;23.342;2022-07-23T06:40:04;22.17;;;6.82;;
52956;SDS011;38819;42.692;23.342;2022-07-23T06:42:30;12.35;;;7.30;;
52956;SDS011;38819;42.692;23.342;2022-07-23T06:44:55;13.43;;;7.20;;
52956;SDS011;38819;42.692;23.342;2022-07-23T06:47:21;12.93;;;6.20;;
52956;SDS011;38819;42.692;23.342;2022-07-23T06:49:46;10.88;;;5.93;;
52956;SDS011;38819;42.692;23.342;2022-07-23T06:52:11;13.55;;;6.35;;
52956;SDS011;38819;42.692;23.342;2022-07-23T06:54:37;13.02;;;6.03;;
52956;SDS011;38819;42.692;23.342;2022-07-23T06:57:02;11.20;;;6.38;;
52956;SDS011;38819;42.692;23.342;2022-07-23T06:59:28;12.38;;;6.30;;
52956;SDS011;38819;42.692;23.342;2022-07-23T07:01:53;15.15;;;5.57;;
52956;SDS011;38819;42.692;23.342;2022-07-23T07:04:19;13.38;;;6.57;;
52956;SDS011;38819;42.692;23.342;2022-07-23T07:06:44;10.77;;;6.07;;
52956;SDS011;38819;42.692;23.342;2022-07-23T07:09:09;10.65;;;6.18;;
52956;SDS011;38819;42.692;23.342;2022-07-23T07:11:35;18.02;;;6.15;;
52956;SDS011;38819;42.692;23.342;2022-07-23T07:14:01;10.63;;;6.03;;
52956;SDS011;38819;42.692;23.342;2022-07-23T07:16:26;12.80;;;6.65;;
52956;SDS011;38819;42.692;23.342;2022-07-23T07:18:51;12.07;;;6.35;;
52956;SDS011;38819;42.692;23.342;2022-07-23T07:21:17;11.30;;;6.50;;
52956;SDS011;38819;42.692;23.342;2022-07-23T07:23:42;13.48;;;6.30;;
52956;SDS011;38819;42.692;23.342;2022-07-23T07:26:08;13.05;;;5.35;;
52956;SDS011;38819;42.692;23.342;2022-07-23T07:28:33;9.88;;;6.22;;
52956;SDS011;38819;42.692;23.342;2022-07-23T07:30:59;14.20;;;5.72;;
52956;SDS011;38819;42.692;23.342;2022-07-23T07:33:24;12.40;;;6.20;;
52956;SDS011;38819;42.692;23.342;2022-07-23T07:35:49;15.75;;;6.30;;
52956;SDS011;38819;42.692;23.342;2022-07-23T07:38:15;15.82;;;6.75;;
52956;SDS011;38819;42.692;23.342;2022-07-23T07:40:41;16.17;;;6.18;;
52956;SDS011;38819;42.692;23.342;2022-07-23T07:43:06;11.43;;;7.18;;
52956;SDS011;38819;42.692;23.342;2022-07-23T07:45:31;15.52;;;6.15;;
52956;SDS011;38819;42.692;23.342;2022-07-23T07:47:57;14.30;;;7.75;;
52956;SDS011;38819;42.692;23.342;2022-07-23T07:50:22;16.77;;;6.85;;
52956;SDS011;38819;42.692;23.342;2022-07-23T07:52:49;20.35;;;7.93;;
52956;SDS011;38819;42.692;23.342;2022-07-23T07:55:14;14.13;;;7.10;;
52956;SDS011;38819;42.692;23.342;2022-07-23T07:57:40;16.92;;;6.53;;
52956;SDS011;38819;42.692;23.342;2022-07-23T08:00:06;19.27;;;7.00;;
52956;SDS011;38819;42.692;23.342;2022-07-23T08:02:50;11.85;;;6.10;;
52956;SDS011;38819;42.692;23.342;2022-07-23T08:05:24;15.38;;;7.25;;
52956;SDS011;38819;42.692;23.342;2022-07-23T08:07:51;11.63;;;6.95;;
52956;SDS011;38819;42.692;23.342;2022-07-23T08:10:17;11.57;;;6.40;;
52956;SDS011;38819;42.692;23.342;2022-07-23T08:12:44;13.63;;;6.60;;
52956;SDS011;38819;42.692;23.342;2022-07-23T08:15:21;16.33;;;6.18;;
52956;SDS011;38819;42.692;23.342;2022-07-23T08:17:47;10.43;;;6.07;;
52956;SDS011;38819;42.692;23.342;2022-07-23T08:20:15;19.42;;;7.38;;
52956;SDS011;38819;42.692;23.342;2022-07-23T08:22:53;20.60;;;6.70;;
52956;SDS011;38819;42.692;23.342;2022-07-23T08:25:26;12.93;;;6.50;;
52956;SDS011;38819;42.692;23.342;2022-07-23T08:27:53;11.70;;;5.65;;
52956;SDS011;38819;42.692;23.342;2022-07-23T08:30:19;15.98;;;6.32;;
52956;SDS011;38819;42.692;23.342;2022-07-23T08:35:22;12.88;;;6.47;;
52956;SDS011;38819;42.692;23.342;2022-07-23T08:37:49;13.10;;;6.78;;
52956;SDS011;38819;42.692;23.342;2022-07-23T08:40:15;14.35;;;6.78;;
52956;SDS011;38819;42.692;23.342;2022-07-23T08:42:40;13.85;;;5.93;;
52956;SDS011;38819;42.692;23.342;2022-07-23T08:45:07;11.55;;;6.32;;
52956;SDS011;38819;42.692;23.342;2022-07-23T08:47:33;10.35;;;5.97;;
52956;SDS011;38819;42.692;23.342;2022-07-23T08:50:02;13.90;;;7.10;;
52956;SDS011;38819;42.692;23.342;2022-07-23T08:52:27;11.02;;;6.13;;
52956;SDS011;38819;42.692;23.342;2022-07-23T08:54:56;18.17;;;5.88;;
52956;SDS011;38819;42.692;23.342;2022-07-23T08:57:22;11.57;;;6.87;;
52956;SDS011;38819;42.692;23.342;2022-07-23T08:59:47;15.10;;;5.85;;
52956;SDS011;38819;42.692;23.342;2022-07-23T09:02:13;16.10;;;6.13;;
52956;SDS011;38819;42.692;23.342;2022-07-23T09:04:38;21.52;;;6.25;;
52956;SDS011;38819;42.692;23.342;2022-07-23T09:07:04;18.40;;;6.50;;
52956;SDS011;38819;42.692;23.342;2022-07-23T09:09:30;14.93;;;6.13;;
52956;SDS011;38819;42.692;23.342;2022-07-23T09:12:29;13.48;;;5.40;;
52956;SDS011;38819;42.692;23.342;2022-07-23T09:14:50;22.42;;;6.82;;
52956;SDS011;38819;42.692;23.342;2022-07-23T09:17:17;9.55;;;5.60;;
52956;SDS011;38819;42.692;23.342;2022-07-23T09:19:43;19.05;;;5.90;;
52956;SDS011;38819;42.692;23.342;2022-07-23T09:22:20;19.77;;;6.20;;
52956;SDS011;38819;42.692;23.342;2022-07-23T09:25:07;11.02;;;6.20;;
52956;SDS011;38819;42.692;23.342;2022-07-23T09:30:13;11.27;;;5.72;;
52956;SDS011;38819;42.692;23.342;2022-07-23T09:32:39;15.68;;;6.70;;
52956;SDS011;38819;42.692;23.342;2022-07-23T09:35:05;19.40;;;6.28;;
52956;SDS011;38819;42.692;23.342;2022-07-23T09:37:31;13.80;;;6.05;;
52956;SDS011;38819;42.692;23.342;2022-07-23T09:40:07;11.05;;;5.88;;
52956;SDS011;38819;42.692;23.342;2022-07-23T09:42:37;12.77;;;5.97;;
52956;SDS011;38819;42.692;23.342;2022-07-23T09:45:02;12.40;;;5.60;;
52956;SDS011;38819;42.692;23.342;2022-07-23T09:47:29;12.73;;;5.80;;
52956;SDS011;38819;42.692;23.342;2022-07-23T09:50:10;14.90;;;5.57;;
52956;SDS011;38819;42.692;23.342;2022-07-23T09:52:48;12.98;;;5.50;;
52956;SDS011;38819;42.692;23.342;2022-07-23T09:57:41;8.00;;;5.22;;
52956;SDS011;38819;42.692;23.342;2022-07-23T10:00:10;12.70;;;5.70;;
52956;SDS011;38819;42.692;23.342;2022-07-23T10:02:36;9.95;;;5.85;;
52956;SDS011;38819;42.692;23.342;2022-07-23T10:05:03;23.95;;;6.70;;
52956;SDS011;38819;42.692;23.342;2022-07-23T10:07:31;12.57;;;5.47;;
52956;SDS011;38819;42.692;23.342;2022-07-23T10:09:59;8.93;;;5.13;;
52956;SDS011;38819;42.692;23.342;2022-07-23T10:12:25;10.27;;;5.05;;
52956;SDS011;38819;42.692;23.342;2022-07-23T10:14:54;12.85;;;5.28;;
52956;SDS011;38819;42.692;23.342;2022-07-23T10:17:21;14.50;;;5.20;;
52956;SDS011;38819;42.692;23.342;2022-07-23T10:19:46;11.18;;;5.15;;
52956;SDS011;38819;42.692;23.342;2022-07-23T10:22:31;16.02;;;5.75;;
52956;SDS011;38819;42.692;23.342;2022-07-23T10:25:18;15.88;;;5.95;;
52956;SDS011;38819;42.692;23.342;2022-07-23T10:30:59;9.80;;;4.75;;
52956;SDS011;38819;42.692;23.342;2022-07-23T10:42:08;10.50;;;5.00;;
52956;SDS011;38819;42.692;23.342;2022-07-23T10:44:46;12.65;;;4.70;;
52956;SDS011;38819;42.692;23.342;2022-07-23T10:47:21;13.32;;;5.25;;
52956;SDS011;38819;42.692;23.342;2022-07-23T10:57:59;10.75;;;4.80;;
52956;SDS011;38819;42.692;23.342;2022-07-23T11:00:27;13.43;;;4.28;;
52956;SDS011;38819;42.692;23.342;2022-07-23T11:02:56;15.48;;;4.55;;
52956;SDS011;38819;42.692;23.342;2022-07-23T11:05:43;16.90;;;4.13;;
52956;SDS011;38819;42.692;23.342;2022-07-23T11:08:11;11.88;;;5.15;;
52956;SDS011;38819;42.692;23.342;2022-07-23T11:31:57;12.27;;;4.72;;
52956;SDS011;38819;42.692;23.342;2022-07-23T11:34:30;18.48;;;4.03;;
52956;SDS011;38819;42.692;23.342;2022-07-23T11:36:58;14.10;;;4.15;;
52956;SDS011;38819;42.692;23.342;2022-07-23T11:39:25;21.42;;;4.93;;
52956;SDS011;38819;42.692;23.342;2022-07-23T11:41:52;14.13;;;4.57;;
52956;SDS011;38819;42.692;23.342;2022-07-23T11:44:31;22.27;;;5.13;;
52956;SDS011;38819;42.692;23.342;2022-07-23T11:47:02;13.73;;;4.20;;
52956;SDS011;38819;42.692;23.342;2022-07-23T11:49:29;13.63;;;4.60;;
52956;SDS011;38819;42.692;23.342;2022-07-23T11:52:02;19.13;;;4.90;;
52956;SDS011;38819;42.692;23.342;2022-07-23T11:54:29;19.77;;;5.00;;
52956;SDS011;38819;42.692;23.342;2022-07-23T11:56:56;13.67;;;4.33;;
52956;SDS011;38819;42.692;23.342;2022-07-23T11:59:23;10.70;;;3.97;;
52956;SDS011;38819;42.692;23.342;2022-07-23T12:04:39;10.93;;;4.28;;
52956;SDS011;38819;42.692;23.342;2022-07-23T12:09:50;12.20;;;3.60;;
52956;SDS011;38819;42.692;23.342;2022-07-23T12:12:15;15.40;;;4.57;;
52956;SDS011;38819;42.692;23.342;2022-07-23T12:14:51;15.82;;;5.63;;
52956;SDS011;38819;42.692;23.342;2022-07-23T12:17:18;10.65;;;3.92;;
52956;SDS011;38819;42.692;23.342;2022-07-23T12:19:44;13.38;;;4.47;;
52956;SDS011;38819;42.692;23.342;2022-07-23T12:22:11;17.98;;;4.65;;
52956;SDS011;38819;42.692;23.342;2022-07-23T12:24:52;15.50;;;4.13;;
52956;SDS011;38819;42.692;23.342;2022-07-23T12:27:21;13.35;;;4.20;;
52956;SDS011;38819;42.692;23.342;2022-07-23T12:29:47;16.30;;;4.88;;
52956;SDS011;38819;42.692;23.342;2022-07-23T12:32:23;15.30;;;4.67;;
52956;SDS011;38819;42.692;23.342;2022-07-23T12:35:08;13.30;;;4.22;;
52956;SDS011;38819;42.692;23.342;2022-07-23T12:37:38;15.35;;;4.13;;
52956;SDS011;38819;42.692;23.342;2022-07-23T12:43:07;13.45;;;4.32;;
52956;SDS011;38819;42.692;23.342;2022-07-23T12:48:16;11.02;;;4.43;;
52956;SDS011;38819;42.692;23.342;2022-07-23T12:55:41;13.97;;;3.70;;
52956;SDS011;38819;42.692;23.342;2022-07-23T13:03:38;18.00;;;4.95;;
52956;SDS011;38819;42.692;23.342;2022-07-23T13:06:09;22.27;;;4.78;;
52956;SDS011;38819;42.692;23.342;2022-07-23T13:08:37;14.45;;;4.45;;
52956;SDS011;38819;42.692;23.342;2022-07-23T13:11:04;15.40;;;3.92;;
52956;SDS011;38819;42.692;23.342;2022-07-23T13:13:31;10.32;;;4.38;;
52956;SDS011;38819;42.692;23.342;2022-07-23T13:15:58;19.25;;;4.30;;
52956;SDS011;38819;42.692;23.342;2022-07-23T13:18:25;21.20;;;4.57;;
52956;SDS011;38819;42.692;23.342;2022-07-23T13:20:51;12.18;;;4.15;;
52956;SDS011;38819;42.692;23.342;2022-07-23T13:23:18;19.60;;;4.77;;
52956;SDS011;38819;42.692;23.342;2022-07-23T13:25:43;15.60;;;4.95;;
52956;SDS011;38819;42.692;23.342;2022-07-23T13:28:09;18.52;;;5.55;;
52956;SDS011;38819;42.692;23.342;2022-07-23T13:30:35;14.93;;;4.70;;
52956;SDS011;38819;42.692;23.342;2022-07-23T13:33:02;14.27;;;4.30;;
52956;SDS011;38819;42.692;23.342;2022-07-23T13:35:28;12.95;;;4.70;;
52956;SDS011;38819;42.692;23.342;2022-07-23T13:37:54;12.13;;;3.93;;
52956;SDS011;38819;42.692;23.342;2022-07-23T13:40:20;17.30;;;4.37;;
52956;SDS011;38819;42.692;23.342;2022-07-23T13:42:46;17.47;;;4.13;;
52956;SDS011;38819;42.692;23.342;2022-07-23T13:45:11;18.47;;;4.77;;
52956;SDS011;38819;42.692;23.342;2022-07-23T13:47:37;17.13;;;4.23;;
52956;SDS011;38819;42.692;23.342;2022-07-23T13:50:03;15.53;;;4.43;;
52956;SDS011;38819;42.692;23.342;2022-07-23T13:52:28;16.87;;;4.00;;
52956;SDS011;38819;42.692;23.342;2022-07-23T13:54:54;11.05;;;4.30;;
52956;SDS011;38819;42.692;23.342;2022-07-23T13:57:19;11.40;;;4.60;;
52956;SDS011;38819;42.692;23.342;2022-07-23T13:59:45;19.83;;;4.20;;
52956;SDS011;38819;42.692;23.342;2022-07-23T14:02:10;9.43;;;3.47;;
52956;SDS011;38819;42.692;23.342;2022-07-23T14:04:41;9.85;;;3.90;;
52956;SDS011;38819;42.692;23.342;2022-07-23T14:07:07;12.33;;;4.37;;
52956;SDS011;38819;42.692;23.342;2022-07-23T14:09:32;17.33;;;4.57;;
52956;SDS011;38819;42.692;23.342;2022-07-23T14:11:59;17.80;;;4.30;;
52956;SDS011;38819;42.692;23.342;2022-07-23T14:14:24;15.70;;;4.40;;
52956;SDS011;38819;42.692;23.342;2022-07-23T14:16:50;15.17;;;3.80;;
52956;SDS011;38819;42.692;23.342;2022-07-23T14:19:15;14.90;;;4.37;;
52956;SDS011;38819;42.692;23.342;2022-07-23T14:21:41;10.80;;;3.83;;
52956;SDS011;38819;42.692;23.342;2022-07-23T14:24:06;15.10;;;3.70;;
52956;SDS011;38819;42.692;23.342;2022-07-23T14:26:32;16.03;;;4.20;;
52956;SDS011;38819;42.692;23.342;2022-07-23T14:28:57;8.83;;;4.47;;
52956;SDS011;38819;42.692;23.342;2022-07-23T14:31:23;20.97;;;4.80;;
52956;SDS011;38819;42.692;23.342;2022-07-23T14:33:48;13.13;;;3.87;;
52956;SDS011;38819;42.692;23.342;2022-07-23T14:36:14;12.70;;;4.07;;
52956;SDS011;38819;42.692;23.342;2022-07-23T14:38:40;11.30;;;3.83;;
52956;SDS011;38819;42.692;23.342;2022-07-23T14:41:05;16.77;;;4.20;;
52956;SDS011;38819;42.692;23.342;2022-07-23T14:43:33;13.82;;;3.78;;
52956;SDS011;38819;42.692;23.342;2022-07-23T14:45:59;15.75;;;4.53;;
52956;SDS011;38819;42.692;23.342;2022-07-23T14:48:24;16.33;;;3.57;;
52956;SDS011;38819;42.692;23.342;2022-07-23T14:50:50;8.23;;;3.37;;
52956;SDS011;38819;42.692;23.342;2022-07-23T14:53:15;14.50;;;4.47;;
52956;SDS011;38819;42.692;23.342;2022-07-23T14:55:40;11.20;;;3.83;;
52956;SDS011;38819;42.692;23.342;2022-07-23T14:58:06;11.87;;;4.53;;
52956;SDS011;38819;42.692;23.342;2022-07-23T15:00:31;11.97;;;4.63;;
52956;SDS011;38819;42.692;23.342;2022-07-23T15:02:57;10.77;;;3.60;;
52956;SDS011;38819;42.692;23.342;2022-07-23T15:05:22;14.60;;;4.23;;
52956;SDS011;38819;42.692;23.342;2022-07-23T15:07:48;21.63;;;4.50;;
52956;SDS011;38819;42.692;23.342;2022-07-23T15:10:14;13.13;;;4.57;;
52956;SDS011;38819;42.692;23.342;2022-07-23T15:12:39;14.13;;;4.10;;
52956;SDS011;38819;42.692;23.342;2022-07-23T15:15:05;9.63;;;3.70;;
52956;SDS011;38819;42.692;23.342;2022-07-23T15:17:32;7.33;;;3.80;;
52956;SDS011;38819;42.692;23.342;2022-07-23T15:19:58;8.95;;;3.42;;
52956;SDS011;38819;42.692;23.342;2022-07-23T15:22:23;13.50;;;4.57;;
52956;SDS011;38819;42.692;23.342;2022-07-23T15:24:49;15.47;;;4.30;;
52956;SDS011;38819;42.692;23.342;2022-07-23T15:27:14;9.70;;;3.67;;
52956;SDS011;38819;42.692;23.342;2022-07-23T15:29:41;13.35;;;4.38;;
52956;SDS011;38819;42.692;23.342;2022-07-23T15:32:07;13.33;;;5.00;;